createdAt,value
2018-02-22T00:00:03.464Z,85.0
2018-02-22T00:01:05.201Z,85.0
2018-02-22T00:02:06.963Z,85.0
2018-02-22T00:03:08.997Z,84.8
2018-02-22T00:04:11.058Z,85.1
2018-02-22T00:05:12.763Z,84.8
2018-02-22T00:06:14.515Z,85.1
2018-02-22T00:07:16.529Z,85.0
2018-02-22T00:08:18.271Z,85.0
2018-02-22T00:09:20.425Z,85.0
2018-02-22T00:10:22.480Z,85.1
2018-02-22T00:11:24.539Z,85.1
2018-02-22T00:12:26.595Z,85.3
2018-02-22T00:13:28.737Z,86.0
2018-02-22T00:14:30.938Z,85.7
2018-02-22T00:15:32.856Z,85.5
2018-02-22T00:16:34.763Z,85.4
2018-02-22T00:17:41.076Z,85.4
2018-02-22T00:18:43.148Z,85.7
2018-02-22T00:19:45.164Z,86.4
2018-02-22T00:20:47.088Z,86.5
2018-02-22T00:21:48.984Z,86.8
2018-02-22T00:22:50.760Z,86.7
2018-02-22T00:23:52.736Z,87.1
2018-02-22T00:24:54.433Z,87.2
2018-02-22T00:25:56.507Z,87.3
2018-02-22T00:26:58.579Z,87.4
2018-02-22T00:28:00.483Z,87.2
2018-02-22T00:29:02.448Z,87.5
2018-02-22T00:30:04.206Z,87.4
2018-02-22T00:31:06.130Z,86.8
2018-02-22T00:32:08.199Z,86.7
2018-02-22T00:33:10.123Z,86.2
2018-02-22T00:34:12.118Z,86.7
2018-02-22T00:35:14.041Z,86.9
2018-02-22T00:36:16.111Z,87.3
2018-02-22T00:37:17.901Z,86.7
2018-02-22T00:38:19.642Z,86.7
2018-02-22T00:39:21.477Z,86.4
2018-02-22T00:40:23.556Z,85.9
2018-02-22T00:41:25.476Z,85.7
2018-02-22T00:42:27.379Z,86.0
2018-02-22T00:43:29.302Z,85.6
2018-02-22T00:44:31.401Z,85.2
2018-02-22T00:47:54.250Z,86.0
2018-02-22T00:48:56.958Z,86.1
2018-02-22T00:49:58.958Z,86.5
2018-02-22T00:51:01.087Z,86.3
2018-02-22T00:52:03.272Z,86.5
2018-02-22T00:53:05.477Z,86.3
2018-02-22T00:54:07.796Z,85.6
2018-02-22T00:55:09.985Z,85.9
2018-02-22T00:56:12.138Z,86.4
2018-02-22T00:57:14.272Z,86.1
2018-02-22T00:58:16.480Z,86.1
2018-02-22T00:59:18.725Z,85.8
2018-02-22T01:00:20.970Z,85.9
2018-02-22T01:01:23.217Z,86.3
2018-02-22T01:02:25.321Z,86.0
2018-02-22T01:03:27.500Z,85.9
2018-02-22T01:04:29.748Z,86.1
2018-02-22T01:05:31.886Z,85.8
2018-02-22T01:06:33.911Z,85.8
2018-02-22T01:07:36.087Z,85.9
2018-02-22T01:08:38.275Z,85.9
2018-02-22T01:09:40.552Z,85.8
2018-02-22T01:10:42.704Z,85.9
2018-02-22T01:11:44.835Z,85.6
2018-02-22T01:12:46.964Z,85.7
2018-02-22T01:13:49.331Z,85.2
2018-02-22T01:14:51.530Z,85.4
2018-02-22T01:15:53.670Z,85.5
2018-02-22T01:16:55.908Z,85.9
2018-02-22T01:17:58.153Z,85.6
2018-02-22T01:19:00.364Z,86.5
2018-02-22T01:20:02.536Z,86.5
2018-02-22T01:21:04.677Z,85.7
2018-02-22T01:22:06.925Z,85.5
2018-02-22T01:23:09.045Z,85.5
2018-02-22T01:24:11.073Z,85.6
2018-02-22T01:25:13.198Z,85.3
2018-02-22T01:26:15.411Z,85.4
2018-02-22T01:27:17.465Z,85.1
2018-02-22T01:28:19.562Z,85.0
2018-02-22T01:29:21.717Z,84.9
2018-02-22T01:30:23.975Z,85.0
2018-02-22T01:31:26.143Z,84.4
2018-02-22T01:32:28.333Z,84.8
2018-02-22T01:33:30.537Z,84.3
2018-02-22T01:34:32.717Z,84.8
2018-02-22T01:35:34.903Z,85.3
2018-02-22T01:36:37.048Z,85.4
2018-02-22T01:37:39.183Z,85.5
2018-02-22T01:38:41.192Z,85.3
2018-02-22T01:39:43.421Z,85.6
2018-02-22T01:40:45.487Z,85.4
2018-02-22T01:41:47.698Z,85.5
2018-02-22T01:42:49.889Z,85.6
2018-02-22T01:43:52.082Z,85.6
2018-02-22T01:44:54.307Z,85.8
2018-02-22T01:45:56.539Z,85.6
2018-02-22T01:46:58.690Z,85.2
2018-02-22T01:48:00.871Z,85.1
2018-02-22T01:49:03.200Z,85.4
2018-02-22T01:50:05.391Z,85.2
2018-02-22T01:51:07.555Z,85.5
2018-02-22T01:52:09.697Z,85.2
2018-02-22T01:53:11.843Z,85.0
2018-02-22T01:54:14.030Z,85.6
2018-02-22T01:55:16.189Z,85.1
2018-02-22T01:56:18.390Z,85.3
2018-02-22T01:57:20.542Z,84.7
2018-02-22T01:58:22.823Z,85.0
2018-02-22T01:59:24.884Z,85.3
2018-02-22T02:00:26.984Z,85.0
2018-02-22T02:01:29.076Z,85.0
2018-02-22T02:02:31.281Z,84.9
2018-02-22T02:03:33.452Z,85.6
2018-02-22T02:04:35.614Z,85.5
2018-02-22T02:05:37.769Z,85.7
2018-02-22T02:06:40.029Z,85.8
2018-02-22T02:07:42.309Z,85.6
2018-02-22T02:08:44.516Z,85.7
2018-02-22T02:09:46.691Z,85.3
2018-02-22T02:10:48.898Z,85.2
2018-02-22T02:11:51.016Z,85.1
2018-02-22T02:12:54.122Z,85.6
2018-02-22T02:13:56.374Z,85.9
2018-02-22T02:14:58.670Z,86.7
2018-02-22T02:16:00.831Z,85.7
2018-02-22T02:17:03.525Z,85.8
2018-02-22T02:18:05.785Z,86.2
2018-02-22T02:19:08.591Z,86.3
2018-02-22T02:20:10.763Z,85.8
2018-02-22T02:21:12.914Z,86.3
2018-02-22T02:22:15.155Z,86.3
2018-02-22T02:23:18.019Z,86.3
2018-02-22T02:24:20.159Z,86.5
2018-02-22T02:25:22.278Z,86.7
2018-02-22T02:26:24.533Z,86.1
2018-02-22T02:27:26.782Z,86.2
2018-02-22T02:28:29.057Z,85.8
2018-02-22T02:29:34.108Z,85.7
2018-02-22T02:30:36.281Z,85.7
2018-02-22T02:31:38.476Z,86.1
2018-02-22T02:32:40.667Z,85.6
2018-02-22T02:33:42.839Z,85.9
2018-02-22T02:34:45.134Z,86.5
2018-02-22T02:35:47.340Z,86.3
2018-02-22T02:36:49.554Z,85.7
2018-02-22T02:37:51.802Z,86.1
2018-02-22T02:38:53.981Z,85.9
2018-02-22T02:39:56.206Z,85.9
2018-02-22T02:40:59.008Z,85.9
2018-02-22T02:42:01.188Z,86.2
2018-02-22T02:43:03.357Z,85.9
2018-02-22T02:44:05.495Z,85.9
2018-02-22T02:45:08.579Z,85.0
2018-02-22T02:46:10.759Z,85.5
2018-02-22T02:47:13.028Z,85.3
2018-02-22T02:48:15.230Z,85.0
2018-02-22T02:49:17.449Z,85.1
2018-02-22T02:50:19.621Z,85.5
2018-02-22T02:51:22.616Z,85.2
2018-02-22T02:52:24.827Z,85.3
2018-02-22T02:53:27.602Z,84.8
2018-02-22T02:54:30.522Z,85.0
2018-02-22T02:55:32.663Z,85.2
2018-02-22T02:56:34.823Z,85.3
2018-02-22T02:57:37.160Z,85.0
2018-02-22T02:58:42.152Z,85.4
2018-02-22T02:59:44.337Z,85.4
2018-02-22T03:00:47.082Z,85.3
2018-02-22T03:01:49.168Z,85.0
2018-02-22T03:02:51.353Z,85.5
2018-02-22T03:03:53.440Z,85.3
2018-02-22T03:04:55.683Z,85.3
2018-02-22T03:05:57.959Z,85.6
2018-02-22T03:07:00.111Z,85.6
2018-02-22T03:08:02.331Z,85.7
2018-02-22T03:09:05.096Z,85.2
2018-02-22T03:10:07.316Z,86.2
2018-02-22T03:11:09.503Z,85.5
2018-02-22T03:12:11.708Z,85.2
2018-02-22T03:13:13.844Z,85.2
2018-02-22T03:14:16.065Z,85.2
2018-02-22T03:15:21.153Z,85.5
2018-02-22T03:16:24.044Z,85.0
2018-02-22T03:17:27.145Z,85.3
2018-02-22T03:18:29.296Z,85.0
2018-02-22T03:19:38.141Z,84.9
2018-02-22T03:20:40.249Z,84.8
2018-02-22T03:21:42.470Z,85.0
2018-02-22T03:22:44.700Z,85.1
2018-02-22T03:23:46.835Z,84.8
2018-02-22T03:24:49.018Z,85.1
2018-02-22T03:25:51.292Z,85.1
2018-02-22T03:26:53.482Z,84.5
2018-02-22T03:27:55.744Z,84.4
2018-02-22T03:28:58.679Z,84.5
2018-02-22T03:30:00.899Z,85.2
2018-02-22T03:31:03.684Z,85.1
2018-02-22T03:32:05.808Z,85.6
2018-02-22T03:33:08.018Z,85.6
2018-02-22T03:34:10.208Z,84.9
2018-02-22T03:35:12.835Z,85.0
2018-02-22T03:36:14.985Z,85.0
2018-02-22T03:37:17.130Z,85.6
2018-02-22T03:38:19.366Z,85.4
2018-02-22T03:39:21.628Z,85.3
2018-02-22T03:40:23.755Z,85.4
2018-02-22T03:41:25.904Z,85.6
2018-02-22T03:42:28.701Z,85.6
2018-02-22T03:43:30.845Z,85.5
2018-02-22T03:44:33.749Z,85.0
2018-02-22T03:45:36.726Z,85.4
2018-02-22T03:46:39.082Z,85.0
2018-02-22T03:47:41.283Z,85.0
2018-02-22T03:48:44.106Z,85.0
2018-02-22T03:49:46.336Z,85.4
2018-02-22T03:50:48.548Z,85.2
2018-02-22T03:51:50.759Z,85.2
2018-02-22T03:52:52.932Z,85.3
2018-02-22T03:53:55.218Z,85.1
2018-02-22T03:54:57.418Z,84.8
2018-02-22T03:55:59.637Z,85.1
2018-02-22T03:57:01.872Z,84.8
2018-02-22T03:58:04.348Z,85.0
2018-02-22T03:59:09.141Z,85.1
2018-02-22T04:00:11.341Z,85.1
2018-02-22T04:01:13.586Z,85.4
2018-02-22T04:02:15.736Z,85.0
2018-02-22T04:03:17.773Z,85.5
2018-02-22T04:04:19.957Z,85.3
2018-02-22T04:05:22.060Z,85.6
2018-02-22T04:06:25.142Z,85.7
2018-02-22T04:07:27.325Z,85.8
2018-02-22T04:08:29.441Z,85.7
2018-02-22T04:09:31.656Z,86.1
2018-02-22T04:10:34.552Z,85.8
2018-02-22T04:11:37.769Z,85.9
2018-02-22T04:12:40.637Z,85.6
2018-02-22T04:13:42.825Z,86.4
2018-02-22T04:14:45.095Z,86.1
2018-02-22T04:15:47.319Z,86.1
2018-02-22T04:16:50.175Z,86.0
2018-02-22T04:17:53.207Z,86.9
2018-02-22T04:18:56.153Z,86.7
2018-02-22T04:19:58.582Z,86.8
2018-02-22T04:21:00.704Z,86.7
2018-02-22T04:23:13.521Z,86.7
2018-02-22T04:24:15.147Z,87.3
2018-02-22T04:25:16.758Z,87.3
2018-02-22T04:26:18.572Z,86.9
2018-02-22T04:27:20.406Z,86.9
2018-02-22T04:28:22.043Z,87.3
2018-02-22T04:29:23.696Z,86.7
2018-02-22T04:30:25.699Z,87.4
2018-02-22T04:31:27.412Z,87.3
2018-02-22T04:32:29.245Z,87.0
2018-02-22T04:33:31.193Z,86.7
2018-02-22T04:34:32.949Z,85.9
2018-02-22T04:35:35.023Z,86.2
2018-02-22T04:36:37.162Z,86.1
2018-02-22T04:37:39.110Z,86.7
2018-02-22T04:38:41.292Z,86.9
2018-02-22T04:39:43.070Z,87.3
2018-02-22T04:40:45.137Z,87.2
2018-02-22T04:41:47.162Z,87.2
2018-02-22T04:42:49.370Z,86.9
2018-02-22T04:43:51.534Z,87.4
2018-02-22T04:44:53.371Z,86.7
2018-02-22T04:45:55.290Z,86.7
2018-02-22T04:46:57.425Z,86.8
2018-02-22T04:47:59.448Z,86.8
2018-02-22T04:49:01.153Z,86.7
2018-02-22T04:50:03.179Z,86.1
2018-02-22T04:51:05.022Z,86.6
2018-02-22T04:52:06.791Z,86.5
2018-02-22T04:53:08.791Z,86.0
2018-02-22T04:54:10.784Z,86.1
2018-02-22T04:55:12.546Z,85.9
2018-02-22T04:56:14.349Z,86.2
2018-02-22T04:57:16.337Z,86.3
2018-02-22T04:58:18.448Z,86.2
2018-02-22T04:59:20.365Z,86.2
2018-02-22T05:00:22.044Z,85.9
2018-02-22T05:01:23.883Z,86.7
2018-02-22T05:02:25.632Z,87.1
2018-02-22T05:03:27.716Z,87.1
2018-02-22T05:04:29.809Z,87.7
2018-02-22T05:05:31.791Z,86.9
2018-02-22T05:06:33.775Z,86.8
2018-02-22T05:07:35.898Z,87.0
2018-02-22T05:08:37.958Z,87.0
2018-02-22T05:09:39.967Z,87.1
2018-02-22T05:10:42.780Z,87.3
2018-02-22T05:11:44.878Z,87.5
2018-02-22T05:12:46.918Z,87.2
2018-02-22T05:13:48.645Z,87.2
2018-02-22T05:14:50.383Z,87.2
2018-02-22T05:15:52.441Z,87.2
2018-02-22T05:16:54.222Z,87.1
2018-02-22T05:17:56.305Z,87.2
2018-02-22T05:18:58.039Z,87.0
2018-02-22T05:19:59.833Z,86.9
2018-02-22T05:21:01.575Z,87.2
2018-02-22T05:22:03.332Z,87.5
2018-02-22T05:23:05.234Z,88.0
2018-02-22T05:24:06.843Z,87.5
2018-02-22T05:25:08.614Z,88.4
2018-02-22T05:26:10.255Z,88.5
2018-02-22T05:27:12.007Z,88.4
2018-02-22T05:28:13.683Z,87.9
2018-02-22T05:29:15.585Z,87.9
2018-02-22T05:30:17.605Z,87.6
2018-02-22T05:31:19.679Z,87.2
2018-02-22T05:32:21.592Z,87.1
2018-02-22T05:33:23.991Z,87.2
2018-02-22T05:34:25.789Z,87.4
2018-02-22T05:35:27.484Z,86.8
2018-02-22T05:36:29.206Z,86.9
2018-02-22T05:37:30.951Z,86.9
2018-02-22T05:38:32.544Z,86.7
2018-02-22T05:39:34.723Z,87.3
2018-02-22T05:40:36.548Z,86.7
2018-02-22T05:41:38.441Z,86.3
2018-02-22T05:42:40.550Z,86.3
2018-02-22T05:43:42.293Z,86.1
2018-02-22T05:44:44.596Z,86.2
2018-02-22T05:45:46.776Z,86.4
2018-02-22T05:46:48.885Z,85.8
2018-02-22T05:47:50.657Z,85.7
2018-02-22T05:48:52.565Z,85.9
2018-02-22T05:49:54.471Z,85.6
2018-02-22T05:50:57.239Z,85.4
2018-02-22T05:51:59.340Z,85.4
2018-02-22T05:53:01.063Z,85.5
2018-02-22T05:54:03.378Z,86.4
2018-02-22T05:55:06.258Z,86.1
2018-02-22T05:56:08.831Z,85.9
2018-02-22T05:57:10.925Z,86.1
2018-02-22T05:58:14.447Z,86.4
2018-02-22T05:59:17.611Z,86.2
2018-02-22T06:00:20.172Z,86.7
2018-02-22T06:01:22.938Z,86.8
2018-02-22T06:02:24.847Z,86.7
2018-02-22T06:03:27.053Z,86.0
2018-02-22T06:04:29.612Z,86.6
2018-02-22T06:05:31.344Z,86.6
2018-02-22T06:06:33.703Z,87.2
2018-02-22T06:07:35.797Z,87.4
2018-02-22T06:08:37.876Z,87.9
2018-02-22T06:09:39.962Z,87.7
2018-02-22T06:10:42.120Z,87.6
2018-02-22T06:11:43.774Z,87.3
2018-02-22T06:12:45.395Z,86.8
2018-02-22T06:13:47.089Z,87.2
2018-02-22T06:14:48.895Z,87.1
2018-02-22T06:15:50.542Z,86.9
2018-02-22T06:16:52.173Z,87.3
2018-02-22T06:17:53.817Z,87.3
2018-02-22T06:18:55.951Z,87.4
2018-02-22T06:19:58.010Z,86.7
2018-02-22T06:21:02.220Z,86.9
2018-02-22T06:22:05.235Z,86.7
2018-02-22T06:23:07.620Z,86.9
2018-02-22T06:24:09.527Z,86.2
2018-02-22T06:25:15.937Z,86.4
2018-02-22T06:26:16.596Z,86.1
2018-02-22T06:27:19.135Z,86.9
2018-02-22T06:28:21.211Z,86.6
2018-02-22T06:29:23.329Z,86.6
2018-02-22T06:30:25.424Z,86.6
2018-02-22T06:31:27.286Z,86.6
2018-02-22T06:32:29.114Z,86.8
2018-02-22T06:33:31.355Z,86.9
2018-02-22T06:34:35.605Z,87.2
2018-02-22T06:35:37.540Z,86.8
2018-02-22T06:36:39.468Z,86.9
2018-02-22T06:37:54.702Z,87.3
2018-02-22T06:38:58.658Z,87.2
2018-02-22T06:40:04.774Z,87.7
2018-02-22T06:41:06.812Z,87.7
2018-02-22T06:42:08.755Z,87.6
2018-02-22T06:43:10.918Z,87.5
2018-02-22T06:44:13.156Z,88.1
2018-02-22T06:45:14.948Z,88.0
2018-02-22T06:46:17.072Z,89.2
2018-02-22T06:47:19.434Z,88.5
2018-02-22T06:48:22.305Z,88.6
2018-02-22T06:49:25.960Z,87.6
2018-02-22T06:50:28.977Z,87.0
2018-02-22T06:51:31.009Z,86.8
2018-02-22T06:52:33.002Z,87.2
2018-02-22T06:53:35.167Z,87.3
2018-02-22T06:54:39.083Z,87.5
2018-02-22T06:55:40.973Z,87.8
2018-02-22T06:56:43.004Z,87.9
2018-02-22T06:57:44.915Z,87.8
2018-02-22T06:58:46.640Z,87.6
2018-02-22T06:59:48.705Z,87.7
2018-02-22T07:00:50.811Z,87.4
2018-02-22T07:01:52.837Z,87.4
2018-02-22T07:02:55.355Z,87.3
2018-02-22T07:03:57.682Z,86.9
2018-02-22T07:04:59.839Z,87.3
2018-02-22T07:06:01.802Z,87.4
2018-02-22T07:07:03.900Z,87.2
2018-02-22T07:08:05.946Z,87.3
2018-02-22T07:09:08.101Z,87.3
2018-02-22T07:10:10.573Z,87.1
2018-02-22T07:12:23.117Z,87.2
2018-02-22T07:13:27.326Z,87.1
2018-02-22T07:14:29.253Z,87.2
2018-02-22T07:15:31.253Z,87.2
2018-02-22T07:16:33.301Z,87.0
2018-02-22T07:17:35.366Z,86.9
2018-02-22T07:18:37.775Z,87.2
2018-02-22T07:19:40.181Z,87.9
2018-02-22T07:20:42.458Z,87.6
2018-02-22T07:21:45.014Z,87.6
2018-02-22T07:22:46.999Z,87.1
2018-02-22T07:23:49.037Z,87.2
2018-02-22T07:24:51.509Z,87.3
2018-02-22T07:25:53.745Z,87.0
2018-02-22T07:26:56.404Z,86.7
2018-02-22T07:29:08.872Z,86.6
2018-02-22T07:30:11.462Z,86.7
2018-02-22T07:31:13.812Z,86.1
2018-02-22T07:32:16.218Z,85.9
2018-02-22T07:33:18.579Z,85.0
2018-02-22T07:34:22.218Z,84.4
2018-02-22T07:35:25.092Z,83.2
2018-02-22T07:36:27.368Z,82.1
2018-02-22T07:37:30.142Z,81.9
2018-02-22T07:38:32.941Z,81.5
2018-02-22T07:39:35.198Z,80.5
2018-02-22T07:40:37.479Z,79.9
2018-02-22T07:41:39.659Z,79.5
2018-02-22T07:42:41.806Z,79.3
2018-02-22T07:43:44.060Z,78.7
2018-02-22T07:44:46.361Z,77.5
2018-02-22T07:45:48.593Z,77.0
2018-02-22T07:46:50.808Z,76.4
2018-02-22T07:47:53.668Z,76.1
2018-02-22T07:48:55.812Z,75.3
2018-02-22T07:49:57.981Z,74.7
2018-02-22T07:51:07.151Z,74.2
2018-02-22T07:52:09.430Z,73.7
2018-02-22T07:53:11.674Z,72.9
2018-02-22T07:54:13.929Z,72.5
2018-02-22T07:55:17.106Z,72.4
2018-02-22T07:56:22.069Z,71.9
2018-02-22T07:57:25.266Z,71.8
2018-02-22T07:58:27.511Z,72.2
2018-02-22T07:59:30.055Z,71.0
2018-02-22T08:00:33.119Z,71.5
2018-02-22T08:01:35.712Z,70.5
2018-02-22T08:02:44.614Z,69.5
2018-02-22T08:03:46.980Z,69.2
2018-02-22T08:04:49.155Z,68.6
2018-02-22T08:05:51.522Z,69.2
2018-02-22T08:06:53.587Z,68.9
2018-02-22T08:07:55.862Z,68.2
2018-02-22T08:08:58.540Z,68.4
2018-02-22T08:10:00.781Z,68.3
2018-02-22T08:11:02.942Z,67.9
2018-02-22T08:12:05.117Z,67.3
2018-02-22T08:13:07.977Z,66.9
2018-02-22T08:14:13.412Z,67.6
2018-02-22T08:15:16.575Z,67.8
2018-02-22T08:16:18.751Z,67.1
2018-02-22T08:17:21.071Z,67.1
2018-02-22T08:18:23.324Z,66.5
2018-02-22T08:19:26.085Z,65.9
2018-02-22T08:20:28.347Z,65.5
2018-02-22T08:22:40.050Z,64.3
2018-02-22T08:23:41.651Z,64.9
2018-02-22T08:25:34.943Z,64.3
2018-02-22T08:26:38.508Z,64.1
2018-02-22T08:27:40.062Z,63.7
2018-02-22T08:28:42.724Z,64.0
2018-02-22T08:29:44.905Z,63.1
2018-02-22T08:30:46.972Z,63.1
2018-02-22T08:31:49.003Z,63.0
2018-02-22T08:32:50.809Z,62.2
2018-02-22T08:33:52.840Z,62.2
2018-02-22T08:34:55.123Z,61.7
2018-02-22T08:35:56.877Z,62.2
2018-02-22T08:36:58.704Z,61.5
2018-02-22T08:38:00.732Z,61.3
2018-02-22T08:39:02.610Z,61.5
2018-02-22T08:40:04.523Z,60.2
2018-02-22T08:41:06.273Z,59.9
2018-02-22T08:42:07.964Z,60.6
2018-02-22T08:43:09.636Z,60.4
2018-02-22T08:44:11.649Z,60.4
2018-02-22T08:45:13.808Z,59.7
2018-02-22T08:46:15.856Z,60.0
2018-02-22T08:47:17.703Z,59.5
2018-02-22T08:48:19.782Z,58.7
2018-02-22T08:49:22.222Z,58.5
2018-02-22T08:50:24.293Z,59.2
2018-02-22T08:51:26.660Z,58.4
2018-02-22T08:52:28.720Z,58.1
2018-02-22T08:53:30.542Z,58.0
2018-02-22T08:54:32.392Z,57.7
2018-02-22T08:55:34.512Z,57.1
2018-02-22T08:56:36.628Z,57.1
2018-02-22T08:57:38.461Z,57.7
2018-02-22T08:58:40.233Z,57.8
2018-02-22T08:59:42.190Z,58.1
2018-02-22T09:00:43.964Z,58.0
2018-02-22T09:01:45.712Z,58.2
2018-02-22T09:02:47.457Z,57.6
2018-02-22T09:03:49.170Z,57.2
2018-02-22T09:04:50.974Z,57.3
2018-02-22T09:05:52.776Z,57.0
2018-02-22T09:06:54.583Z,57.4
2018-02-22T09:07:56.795Z,56.7
2018-02-22T09:08:59.516Z,57.1
2018-02-22T09:10:01.714Z,57.4
2018-02-22T09:11:04.211Z,57.4
2018-02-22T09:12:06.753Z,57.8
2018-02-22T09:13:09.057Z,57.7
2018-02-22T09:14:13.204Z,57.8
2018-02-22T09:15:15.478Z,57.4
2018-02-22T09:16:18.224Z,56.8
2018-02-22T09:17:20.849Z,56.7
2018-02-22T09:18:22.929Z,56.2
2018-02-22T09:19:24.618Z,56.0
2018-02-22T09:20:27.027Z,56.1
2018-02-22T09:21:29.503Z,56.8
2018-02-22T09:22:32.677Z,56.6
2018-02-22T09:23:35.002Z,56.0
2018-02-22T09:24:37.176Z,55.8
2018-02-22T09:25:40.412Z,56.3
2018-02-22T09:26:42.845Z,56.7
2018-02-22T09:27:45.685Z,56.3
2018-02-22T09:28:47.878Z,56.9
2018-02-22T09:29:49.712Z,57.4
2018-02-22T09:32:03.598Z,57.3
2018-02-22T09:33:07.695Z,57.6
2018-02-22T09:34:13.499Z,57.5
2018-02-22T09:35:16.935Z,58.4
2018-02-22T09:36:20.329Z,59.0
2018-02-22T09:37:26.347Z,59.5
2018-02-22T09:38:29.992Z,59.4
2018-02-22T09:39:33.780Z,57.8
2018-02-22T09:40:36.974Z,57.1
2018-02-22T09:41:39.940Z,57.2
2018-02-22T09:42:45.893Z,57.4
2018-02-22T09:44:04.109Z,57.2
2018-02-22T09:45:08.294Z,57.2
2018-02-22T09:46:11.600Z,56.4
2018-02-22T09:47:16.623Z,56.8
2018-02-22T09:48:20.588Z,55.7
2018-02-22T09:49:23.470Z,55.5
2018-02-22T09:50:27.500Z,54.8
2018-02-22T09:51:30.203Z,55.2
2018-02-22T09:52:32.996Z,54.9
2018-02-22T09:53:36.679Z,55.0
2018-02-22T09:54:40.105Z,56.2
2018-02-22T09:55:43.374Z,55.8
2018-02-22T09:56:47.122Z,55.7
2018-02-22T09:57:50.444Z,54.5
2018-02-22T09:58:54.450Z,55.3
2018-02-22T09:59:56.625Z,55.4
2018-02-22T10:01:02.002Z,55.4
2018-02-22T10:02:04.400Z,54.1
2018-02-22T10:03:06.607Z,54.4
2018-02-22T10:04:09.133Z,54.1
2018-02-22T10:05:12.332Z,54.1
2018-02-22T10:06:15.171Z,53.7
2018-02-22T10:07:17.537Z,53.4
2018-02-22T10:08:19.778Z,54.7
2018-02-22T10:09:22.280Z,54.3
2018-02-22T10:10:24.202Z,53.3
2018-02-22T10:11:26.716Z,54.2
2018-02-22T10:12:29.138Z,54.6
2018-02-22T10:13:31.387Z,55.3
2018-02-22T10:14:33.688Z,55.0
2018-02-22T10:15:36.108Z,54.5
2018-02-22T10:16:38.317Z,54.3
2018-02-22T10:17:40.671Z,54.1
2018-02-22T10:18:42.913Z,54.1
2018-02-22T10:19:45.358Z,54.6
2018-02-22T10:20:48.960Z,53.9
2018-02-22T10:21:51.785Z,53.6
2018-02-22T10:22:54.140Z,53.7
2018-02-22T10:23:57.086Z,53.8
2018-02-22T10:24:59.710Z,53.6
2018-02-22T10:26:01.936Z,53.6
2018-02-22T10:27:04.291Z,52.8
2018-02-22T10:28:06.481Z,51.9
2018-02-22T10:29:08.798Z,51.4
2018-02-22T10:30:11.056Z,51.4
2018-02-22T10:31:13.284Z,50.7
2018-02-22T10:32:15.180Z,50.2
2018-02-22T10:33:17.365Z,50.5
2018-02-22T10:34:19.196Z,50.7
2018-02-22T10:35:21.505Z,52.2
2018-02-22T10:36:24.055Z,53.4
2018-02-22T10:37:26.459Z,53.7
2018-02-22T10:38:29.422Z,53.4
2018-02-22T10:39:31.823Z,53.5
2018-02-22T10:40:34.319Z,52.8
2018-02-22T10:41:36.262Z,51.7
2018-02-22T10:42:38.474Z,50.6
2018-02-22T10:43:40.488Z,50.3
2018-02-22T10:44:42.481Z,50.5
2018-02-22T10:45:45.395Z,51.3
2018-02-22T10:46:47.872Z,51.5
2018-02-22T10:47:50.064Z,51.4
2018-02-22T10:48:53.053Z,50.1
2018-02-22T10:49:58.005Z,49.7
2018-02-22T10:51:00.287Z,49.7
2018-02-22T10:52:02.583Z,48.8
2018-02-22T10:53:05.471Z,48.8
2018-02-22T10:54:08.515Z,49.6
2018-02-22T10:55:10.807Z,49.1
2018-02-22T10:56:13.031Z,48.9
2018-02-22T10:57:15.325Z,49.3
2018-02-22T10:58:17.498Z,49.7
2018-02-22T10:59:19.797Z,49.5
2018-02-22T11:00:22.049Z,48.9
2018-02-22T11:01:26.869Z,48.9
2018-02-22T11:02:29.176Z,50.0
2018-02-22T11:03:32.121Z,50.9
2018-02-22T11:04:34.141Z,51.3
2018-02-22T11:05:36.458Z,52.4
2018-02-22T11:06:38.726Z,51.8
2018-02-22T11:07:41.488Z,51.1
2018-02-22T11:08:43.623Z,50.6
2018-02-22T11:09:45.943Z,50.9
2018-02-22T11:10:48.353Z,50.0
2018-02-22T11:11:50.863Z,50.0
2018-02-22T11:12:53.097Z,47.9
2018-02-22T11:13:55.088Z,46.6
2018-02-22T11:14:58.823Z,46.8
2018-02-22T11:16:00.990Z,44.8
2018-02-22T11:17:03.912Z,43.7
2018-02-22T11:18:06.105Z,44.1
2018-02-22T11:19:09.038Z,44.2
2018-02-22T11:20:10.802Z,43.9
2018-02-22T11:21:13.894Z,43.7
2018-02-22T11:22:16.091Z,43.2
2018-02-22T11:23:18.219Z,42.7
2018-02-22T11:24:20.418Z,41.9
2018-02-22T11:25:25.404Z,40.0
2018-02-22T11:26:27.508Z,38.5
2018-02-22T11:27:29.381Z,38.0
2018-02-22T11:28:31.916Z,37.7
2018-02-22T11:29:34.175Z,38.0
2018-02-22T11:30:36.402Z,38.2
2018-02-22T11:31:38.402Z,39.3
2018-02-22T11:32:40.683Z,40.0
2018-02-22T11:33:42.799Z,40.1
2018-02-22T11:34:44.854Z,39.6
2018-02-22T11:35:47.130Z,40.2
2018-02-22T11:36:49.181Z,40.7
2018-02-22T11:37:51.138Z,41.6
2018-02-22T11:38:53.196Z,41.9
2018-02-22T11:39:55.453Z,41.8
2018-02-22T11:40:57.382Z,40.7
2018-02-22T11:42:02.617Z,40.1
2018-02-22T11:43:04.615Z,40.1
2018-02-22T11:44:13.188Z,41.1
2018-02-22T11:45:15.430Z,41.3
2018-02-22T11:46:17.786Z,41.2
2018-02-22T11:47:20.130Z,41.4
2018-02-22T11:48:22.984Z,40.7
2018-02-22T11:49:25.915Z,39.4
2018-02-22T11:50:28.295Z,38.1
2018-02-22T11:51:31.418Z,37.3
2018-02-22T11:52:33.388Z,36.6
2018-02-22T11:53:35.748Z,36.1
2018-02-22T11:54:37.789Z,35.6
2018-02-22T11:55:39.601Z,35.7
2018-02-22T11:56:42.421Z,36.2
2018-02-22T11:57:44.493Z,35.4
2018-02-22T11:58:49.476Z,35.5
2018-02-22T11:59:58.509Z,36.7
2018-02-22T12:02:11.591Z,35.6
2018-02-22T12:03:13.774Z,36.8
2018-02-22T12:04:15.745Z,36.7
2018-02-22T12:05:17.754Z,35.2
2018-02-22T12:06:19.485Z,34.6
2018-02-22T12:07:21.328Z,34.1
2018-02-22T12:08:23.226Z,33.2
2018-02-22T12:09:24.911Z,33.3
2018-02-22T12:10:26.657Z,32.0
2018-02-22T12:11:28.423Z,32.3
2018-02-22T12:12:30.140Z,31.2
2018-02-22T12:13:31.862Z,30.8
2018-02-22T12:14:33.611Z,30.0
2018-02-22T12:15:35.382Z,30.1
2018-02-22T12:16:37.122Z,31.1
2018-02-22T12:17:38.866Z,31.3
2018-02-22T12:18:40.756Z,31.0
2018-02-22T12:19:42.569Z,31.2
2018-02-22T12:20:44.295Z,32.1
2018-02-22T12:21:46.096Z,31.3
2018-02-22T12:22:47.820Z,31.1
2018-02-22T12:23:49.557Z,31.1
2018-02-22T12:24:51.267Z,29.8
2018-02-22T12:25:53.028Z,27.5
2018-02-22T12:26:54.834Z,27.1
2018-02-22T12:27:56.547Z,27.0
2018-02-22T12:28:58.325Z,27.3
2018-02-22T12:30:00.131Z,27.0
2018-02-22T12:31:01.940Z,27.2
2018-02-22T12:32:03.644Z,27.5
2018-02-22T12:33:05.369Z,27.1
2018-02-22T12:34:07.101Z,28.6
2018-02-22T12:35:08.850Z,30.1
2018-02-22T12:36:10.589Z,30.5
2018-02-22T12:37:12.386Z,30.9
2018-02-22T12:38:14.207Z,29.8
2018-02-22T12:39:16.031Z,29.6
2018-02-22T12:40:17.812Z,29.8
2018-02-22T12:41:19.623Z,31.0
2018-02-22T12:42:21.433Z,31.0
2018-02-22T12:43:23.174Z,31.5
2018-02-22T12:44:24.961Z,32.0
2018-02-22T12:45:26.828Z,33.4
2018-02-22T12:46:28.616Z,33.4
2018-02-22T12:47:30.344Z,33.3
2018-02-22T12:48:32.121Z,33.5
2018-02-22T12:49:33.847Z,32.2
2018-02-22T12:50:35.652Z,31.1
2018-02-22T12:51:37.426Z,30.1
2018-02-22T12:52:39.147Z,29.2
2018-02-22T12:53:40.889Z,29.5
2018-02-22T12:54:43.229Z,29.7
2018-02-22T12:55:45.403Z,29.9
2018-02-22T12:56:47.151Z,32.0
2018-02-22T12:58:59.953Z,35.4
2018-02-22T13:00:01.704Z,33.9
2018-02-22T13:04:35.007Z,32.2
2018-02-22T13:05:36.830Z,34.9
2018-02-22T13:06:38.592Z,36.9
2018-02-22T13:07:41.121Z,35.0
2018-02-22T13:08:43.279Z,33.5
2018-02-22T13:09:45.337Z,33.3
2018-02-22T13:10:47.530Z,34.7
2018-02-22T13:11:56.447Z,33.0
2018-02-22T13:12:58.721Z,33.2
2018-02-22T13:14:01.008Z,33.0
2018-02-22T13:15:02.822Z,32.5
2018-02-22T13:16:07.695Z,32.7
2018-02-22T13:17:09.877Z,35.5
2018-02-22T13:18:11.823Z,36.9
2018-02-22T13:19:13.782Z,35.6
2018-02-22T13:20:15.975Z,35.6
2018-02-22T13:21:17.942Z,34.7
2018-02-22T13:22:19.841Z,34.9
2018-02-22T13:23:22.080Z,33.8
2018-02-22T13:24:23.761Z,32.3
2018-02-22T13:25:25.976Z,32.0
2018-02-22T13:26:28.156Z,30.8
2018-02-22T13:27:30.966Z,31.3
2018-02-22T13:28:33.929Z,33.8
2018-02-22T13:29:35.926Z,36.9
2018-02-22T13:30:38.144Z,35.9
2018-02-22T13:31:40.294Z,35.1
2018-02-22T13:32:42.275Z,33.8
2018-02-22T13:33:44.680Z,33.2
2018-02-22T13:34:46.465Z,31.3
2018-02-22T13:35:49.510Z,31.1
2018-02-22T13:36:51.505Z,31.3
2018-02-22T13:37:54.512Z,30.3
2018-02-22T13:38:56.406Z,30.4
2018-02-22T13:39:59.032Z,29.9
2018-02-22T13:41:01.245Z,29.7
2018-02-22T13:42:05.970Z,29.9
2018-02-22T13:43:08.107Z,29.9
2018-02-22T13:44:10.293Z,30.2
2018-02-22T13:45:13.443Z,30.6
2018-02-22T13:46:15.396Z,30.8
2018-02-22T13:47:17.683Z,30.7
2018-02-22T13:48:19.673Z,30.7
2018-02-22T13:49:21.834Z,31.3
2018-02-22T13:50:24.037Z,32.2
2018-02-22T13:51:32.707Z,32.1
2018-02-22T13:52:34.995Z,34.7
2018-02-22T13:53:37.072Z,35.0
2018-02-22T13:54:39.012Z,36.4
2018-02-22T13:55:43.963Z,37.7
2018-02-22T13:56:46.122Z,38.0
2018-02-22T13:57:48.221Z,37.4
2018-02-22T13:58:50.491Z,36.4
2018-02-22T13:59:52.658Z,37.1
2018-02-22T14:00:55.105Z,35.7
2018-02-22T14:01:57.782Z,34.6
2018-02-22T14:03:01.036Z,34.6
2018-02-22T14:04:05.841Z,33.6
2018-02-22T14:05:07.933Z,33.3